createdAt,value
2022-09-13T00:01:13.458Z,1.85
2022-09-13T00:03:40.773Z,1.75
2022-09-13T00:06:19.709Z,1.70
2022-09-13T00:08:48.416Z,1.52
2022-09-13T00:11:26.906Z,1.55
2022-09-13T00:13:56.328Z,1.50
2022-09-13T00:16:29.559Z,1.58
2022-09-13T00:18:57.135Z,1.88
2022-09-13T00:21:25.190Z,2.10
2022-09-13T00:23:55.236Z,1.40
2022-09-13T00:26:28.845Z,1.70
2022-09-13T00:28:58.855Z,1.80
2022-09-13T00:31:28.972Z,1.60
2022-09-13T00:34:00.660Z,1.45
2022-09-13T00:36:28.865Z,1.67
2022-09-13T00:38:59.456Z,1.60
2022-09-13T00:41:27.151Z,1.65
2022-09-13T00:44:02.493Z,2.00
2022-09-13T00:46:43.220Z,1.58
2022-09-13T00:49:36.466Z,1.80
2022-09-13T00:52:13.684Z,1.70
2022-09-13T00:54:52.506Z,1.92
2022-09-13T00:57:22.090Z,2.30
2022-09-13T01:00:14.864Z,2.07
2022-09-13T01:02:54.844Z,2.20
2022-09-13T01:05:30.857Z,2.17
2022-09-13T01:07:59.763Z,2.63
2022-09-13T01:10:27.757Z,2.05
2022-09-13T01:13:14.704Z,2.35
2022-09-13T01:15:42.656Z,2.70
2022-09-13T01:18:11.712Z,2.53
2022-09-13T01:21:47.792Z,2.17
2022-09-13T01:25:18.353Z,1.98
2022-09-13T01:28:29.604Z,1.90
2022-09-13T01:31:47.929Z,2.15
2022-09-13T01:35:00.580Z,1.85
2022-09-13T01:38:18.748Z,2.20
2022-09-13T01:42:13.852Z,2.35
2022-09-13T01:45:26.994Z,2.10
2022-09-13T01:49:15.092Z,2.22
2022-09-13T01:52:11.110Z,2.60
2022-09-13T01:55:37.095Z,1.92
2022-09-13T01:58:29.700Z,1.88
2022-09-13T02:01:24.297Z,2.63
2022-09-13T02:04:23.560Z,2.35
2022-09-13T02:07:31.196Z,2.25
2022-09-13T02:10:16.747Z,2.03
2022-09-13T02:12:47.740Z,2.33
2022-09-13T02:15:32.112Z,2.30
2022-09-13T02:18:30.559Z,2.17
2022-09-13T02:21:13.411Z,2.53
2022-09-13T02:24:03.574Z,2.00
2022-09-13T02:26:34.408Z,2.97
2022-09-13T02:29:13.265Z,2.05
2022-09-13T02:32:10.533Z,2.28
2022-09-13T02:35:00.588Z,2.47
2022-09-13T02:37:34.064Z,2.58
2022-09-13T02:40:14.316Z,1.90
2022-09-13T02:42:59.149Z,1.98
2022-09-13T02:46:30.275Z,2.45
2022-09-13T02:49:34.152Z,2.38
2022-09-13T02:52:24.935Z,2.42
2022-09-13T02:55:18.917Z,2.17
2022-09-13T02:58:14.717Z,2.03
2022-09-13T03:00:42.223Z,2.67
2022-09-13T03:03:15.540Z,1.90
2022-09-13T03:05:44.727Z,1.98
2022-09-13T03:08:14.793Z,2.22
2022-09-13T03:11:12.243Z,2.42
2022-09-13T03:14:54.968Z,2.25
2022-09-13T03:17:58.657Z,2.15
2022-09-13T03:21:35.901Z,1.92
2022-09-13T03:25:02.160Z,1.83
2022-09-13T03:29:00.131Z,2.10
2022-09-13T03:31:58.131Z,1.98
2022-09-13T03:34:48.771Z,1.98
2022-09-13T03:40:25.072Z,2.10
2022-09-13T03:43:38.224Z,2.40
2022-09-13T03:46:17.516Z,1.83
2022-09-13T03:48:45.196Z,2.53
2022-09-13T03:51:12.541Z,1.83
2022-09-13T03:53:52.127Z,1.88
2022-09-13T03:56:21.160Z,2.08
2022-09-13T03:58:49.719Z,1.85
2022-09-13T04:01:26.579Z,1.90
2022-09-13T04:03:56.822Z,1.85
2022-09-13T04:08:51.772Z,2.17
2022-09-13T04:11:21.303Z,2.50
2022-09-13T04:13:48.670Z,2.28
2022-09-13T04:16:16.079Z,2.40
2022-09-13T04:18:43.367Z,1.95
2022-09-13T04:21:10.733Z,2.20
2022-09-13T04:23:38.304Z,2.50
2022-09-13T04:26:06.559Z,2.60
2022-09-13T04:28:33.938Z,2.47
2022-09-13T04:31:02.411Z,1.88
2022-09-13T04:33:30.114Z,2.60
2022-09-13T04:36:00.863Z,2.30
2022-09-13T04:38:30.932Z,2.40
2022-09-13T04:40:58.284Z,3.05
2022-09-13T04:43:27.348Z,2.35
2022-09-13T04:45:54.701Z,2.50
2022-09-13T04:48:21.974Z,2.90
2022-09-13T04:50:49.236Z,2.05
2022-09-13T04:53:16.626Z,2.78
2022-09-13T04:55:43.883Z,2.13
2022-09-13T04:58:11.931Z,2.45
2022-09-13T05:00:39.208Z,2.35
2022-09-13T05:03:06.477Z,2.85
2022-09-13T05:05:33.783Z,2.80
2022-09-13T05:08:01.269Z,2.50
2022-09-13T05:10:28.580Z,2.47
2022-09-13T05:12:55.880Z,2.90
2022-09-13T05:15:23.144Z,2.72
2022-09-13T05:17:50.387Z,2.50
2022-09-13T05:20:18.542Z,2.65
2022-09-13T05:22:45.832Z,2.70
2022-09-13T05:25:13.948Z,2.88
2022-09-13T05:27:41.234Z,2.53
2022-09-13T05:30:09.279Z,2.90
2022-09-13T05:32:36.583Z,2.70
2022-09-13T05:35:04.365Z,2.75
2022-09-13T05:37:31.721Z,2.22
2022-09-13T05:40:14.329Z,2.88
2022-09-13T05:42:41.793Z,3.00
2022-09-13T05:45:11.053Z,2.45
2022-09-13T05:47:43.457Z,2.38
2022-09-13T05:50:22.247Z,2.53
2022-09-13T05:52:56.391Z,2.50
2022-09-13T05:55:24.383Z,2.85
2022-09-13T05:57:51.685Z,3.40
2022-09-13T06:00:19.056Z,2.53
2022-09-13T06:02:46.530Z,2.70
2022-09-13T06:05:14.585Z,2.47
2022-09-13T06:07:43.048Z,2.40
2022-09-13T06:10:12.024Z,2.97
2022-09-13T06:12:40.157Z,2.47
2022-09-13T06:15:10.064Z,2.67
2022-09-13T06:17:37.480Z,2.65
2022-09-13T06:20:06.065Z,2.70
2022-09-13T06:22:35.255Z,3.25
2022-09-13T06:25:03.181Z,2.67
2022-09-13T06:27:31.376Z,2.90
2022-09-13T06:30:01.427Z,3.17
2022-09-13T06:32:28.680Z,2.88
2022-09-13T06:34:55.936Z,2.67
2022-09-13T06:37:23.223Z,2.90
2022-09-13T06:39:50.508Z,2.80
2022-09-13T06:42:17.936Z,2.83
2022-09-13T06:44:50.338Z,2.78
2022-09-13T06:47:18.740Z,2.33
2022-09-13T06:49:46.062Z,3.10
2022-09-13T06:52:13.319Z,2.33
2022-09-13T06:54:40.853Z,2.80
2022-09-13T06:57:08.140Z,2.88
2022-09-13T06:59:35.492Z,2.65
2022-09-13T07:02:03.022Z,2.80
2022-09-13T07:04:33.073Z,3.50
2022-09-13T07:07:02.298Z,3.10
2022-09-13T07:09:29.611Z,2.70
2022-09-13T07:11:58.200Z,3.05
2022-09-13T07:14:29.835Z,3.03
2022-09-13T07:16:57.401Z,2.60
2022-09-13T07:19:28.088Z,2.78
2022-09-13T07:22:00.839Z,3.15
2022-09-13T07:24:28.595Z,2.83
2022-09-13T07:26:56.119Z,2.72
2022-09-13T07:29:25.313Z,2.80
2022-09-13T07:31:55.359Z,2.75
2022-09-13T07:34:26.502Z,2.60
2022-09-13T07:36:54.612Z,2.60
2022-09-13T07:39:23.163Z,3.10
2022-09-13T07:41:51.920Z,3.00
2022-09-13T07:44:19.433Z,3.10
2022-09-13T07:46:46.763Z,2.53
2022-09-13T07:49:19.466Z,2.50
2022-09-13T07:51:46.875Z,2.42
2022-09-13T07:54:18.232Z,2.53
2022-09-13T07:56:46.196Z,2.38
2022-09-13T07:59:18.155Z,3.05
2022-09-13T08:01:50.800Z,2.20
2022-09-13T08:04:24.488Z,2.45
2022-09-13T08:06:51.789Z,2.90
2022-09-13T08:09:19.460Z,2.40
2022-09-13T08:11:53.005Z,2.35
2022-09-13T08:14:24.170Z,2.88
2022-09-13T08:16:55.678Z,2.63
2022-09-13T08:19:23.136Z,2.53
2022-09-13T08:21:50.431Z,2.70
2022-09-13T08:24:21.610Z,2.38
2022-09-13T08:26:49.553Z,2.33
2022-09-13T08:29:17.416Z,2.40
2022-09-13T08:31:45.982Z,2.80
2022-09-13T08:34:16.290Z,2.40
2022-09-13T08:36:44.425Z,2.55
2022-09-13T08:39:13.665Z,2.13
2022-09-13T08:41:42.271Z,3.38
2022-09-13T08:44:46.608Z,2.95
2022-09-13T08:48:16.318Z,2.40
2022-09-13T08:53:30.550Z,2.17
2022-09-13T08:56:13.017Z,2.40
2022-09-13T08:59:40.247Z,2.72
2022-09-13T09:03:05.509Z,2.40
2022-09-13T09:05:47.979Z,2.45
2022-09-13T09:08:39.361Z,2.35
2022-09-13T09:11:39.437Z,1.83
2022-09-13T09:14:32.053Z,2.22
2022-09-13T09:17:20.230Z,2.22
2022-09-13T09:20:20.448Z,1.60
2022-09-13T09:22:49.362Z,2.40
2022-09-13T09:25:16.737Z,2.28
2022-09-13T09:27:44.165Z,1.95
2022-09-13T09:30:15.137Z,2.00
2022-09-13T09:33:20.510Z,2.20
2022-09-13T09:36:37.334Z,2.20
2022-09-13T09:39:11.190Z,1.95
2022-09-13T09:41:38.750Z,1.80
2022-09-13T09:44:31.416Z,2.38
2022-09-13T09:47:14.040Z,2.72
2022-09-13T09:50:25.801Z,1.80
2022-09-13T09:53:26.965Z,2.20
2022-09-13T09:56:12.703Z,2.03
2022-09-13T09:58:43.853Z,2.00
2022-09-13T10:01:34.982Z,2.60
2022-09-13T10:04:11.180Z,1.27
2022-09-13T10:06:42.364Z,1.42
2022-09-13T10:09:23.033Z,1.67
2022-09-13T10:11:59.835Z,1.58
2022-09-13T10:14:46.762Z,1.30
2022-09-13T10:17:29.406Z,1.80
2022-09-13T10:20:14.321Z,1.50
2022-09-13T10:22:42.963Z,2.03
2022-09-13T10:25:37.177Z,1.65
2022-09-13T10:28:09.490Z,2.03
2022-09-13T10:31:02.394Z,2.03
2022-09-13T10:33:42.556Z,1.40
2022-09-13T10:36:52.695Z,1.50
2022-09-13T10:39:23.997Z,1.55
2022-09-13T10:42:08.487Z,1.52
2022-09-13T10:44:53.333Z,1.55
2022-09-13T10:47:51.497Z,1.35
2022-09-13T10:50:31.108Z,1.40
2022-09-13T10:53:00.770Z,2.00
2022-09-13T10:55:39.085Z,1.80
2022-09-13T10:58:06.132Z,1.60
2022-09-13T11:01:40.526Z,1.70
2022-09-13T11:04:57.632Z,1.75
2022-09-13T11:07:48.533Z,1.38
2022-09-13T11:10:43.743Z,1.70
2022-09-13T11:13:54.331Z,1.80
2022-09-13T11:17:10.557Z,1.60
2022-09-13T11:20:28.746Z,2.13
2022-09-13T11:24:14.584Z,1.50
2022-09-13T11:27:29.208Z,1.90
2022-09-13T11:30:30.130Z,1.92
2022-09-13T11:33:34.096Z,1.77
2022-09-13T11:36:37.957Z,2.00
2022-09-13T11:39:49.395Z,1.52
2022-09-13T11:43:37.765Z,1.65
2022-09-13T11:47:06.386Z,1.83
2022-09-13T11:50:23.564Z,1.73
2022-09-13T11:54:05.712Z,1.65
2022-09-13T11:56:46.984Z,1.60
2022-09-13T11:59:59.217Z,1.83
2022-09-13T12:03:12.977Z,1.92
2022-09-13T12:05:53.748Z,1.90
2022-09-13T12:08:36.695Z,1.88
2022-09-13T12:11:32.763Z,2.13
2022-09-13T12:14:17.536Z,1.60
2022-09-13T12:16:55.520Z,1.60
2022-09-13T12:19:41.785Z,1.60
2022-09-13T12:22:10.925Z,1.58
2022-09-13T12:24:53.511Z,2.10
2022-09-13T12:27:39.667Z,1.92
2022-09-13T12:30:19.108Z,1.63
2022-09-13T12:32:49.160Z,1.70
2022-09-13T12:35:49.480Z,1.63
2022-09-13T12:42:38.205Z,1.45
2022-09-13T12:45:31.564Z,1.60
2022-09-13T12:49:13.156Z,2.55
2022-09-13T12:52:47.611Z,1.80
2022-09-13T12:56:21.362Z,1.35
2022-09-13T12:59:39.044Z,2.17
2022-09-13T13:02:45.416Z,2.38
2022-09-13T13:05:38.744Z,1.92
2022-09-13T13:08:30.364Z,1.98
2022-09-13T13:11:15.076Z,1.77
2022-09-13T13:14:00.651Z,1.35
2022-09-13T13:16:40.913Z,2.13
2022-09-13T13:19:33.877Z,1.33
2022-09-13T13:22:44.731Z,1.63
2022-09-13T13:25:38.983Z,1.63
2022-09-13T13:28:43.308Z,1.60
2022-09-13T13:31:29.958Z,1.88
2022-09-13T13:34:06.465Z,1.70
2022-09-13T13:36:42.448Z,2.00
2022-09-13T13:39:42.426Z,1.70
2022-09-13T13:42:31.632Z,1.58
2022-09-13T13:45:25.864Z,1.77
2022-09-13T13:48:15.559Z,1.63
2022-09-13T13:51:15.288Z,1.52
2022-09-13T13:53:55.756Z,1.20
2022-09-13T13:56:49.145Z,1.17
2022-09-13T13:59:33.086Z,1.55
2022-09-13T14:02:01.836Z,1.27
2022-09-13T14:05:28.100Z,1.35
2022-09-13T14:08:39.768Z,1.75
2022-09-13T14:11:46.620Z,1.45
2022-09-13T14:14:33.560Z,1.55
2022-09-13T14:18:08.712Z,1.17
2022-09-13T14:20:36.214Z,1.20
2022-09-13T14:23:19.209Z,1.40
2022-09-13T14:25:53.931Z,1.15
2022-09-13T14:28:23.064Z,1.63
2022-09-13T14:30:58.474Z,1.55
2022-09-13T14:33:34.998Z,1.30
2022-09-13T14:36:21.431Z,1.50
2022-09-13T14:38:59.311Z,1.55
2022-09-13T14:41:39.075Z,1.50
2022-09-13T14:44:29.065Z,1.33
2022-09-13T14:50:15.047Z,1.33
2022-09-13T14:52:57.250Z,1.92
2022-09-13T14:56:12.870Z,1.25
2022-09-13T14:58:51.532Z,1.45
2022-09-13T15:01:34.191Z,1.60
2022-09-13T15:04:07.327Z,1.67
2022-09-13T15:06:40.287Z,1.30
2022-09-13T15:09:10.517Z,1.45
2022-09-13T15:14:38.145Z,1.50
2022-09-13T15:17:14.128Z,1.50
2022-09-13T15:20:12.251Z,1.80
2022-09-13T15:22:43.437Z,1.85
2022-09-13T15:25:29.558Z,1.67
2022-09-13T15:27:58.309Z,1.83
2022-09-13T15:30:38.965Z,1.70
2022-09-13T15:33:12.149Z,1.98
2022-09-13T15:35:47.004Z,1.83
2022-09-13T15:38:31.750Z,1.60
2022-09-13T15:41:20.349Z,1.58
2022-09-13T15:43:51.081Z,1.45
2022-09-13T15:46:19.404Z,1.40
2022-09-13T15:49:05.829Z,1.50
2022-09-13T15:51:38.642Z,1.50
2022-09-13T15:54:18.505Z,1.60
2022-09-13T15:56:53.259Z,1.37
2022-09-13T15:59:22.464Z,1.40
2022-09-13T16:01:53.345Z,1.37
2022-09-13T16:04:21.122Z,1.88
2022-09-13T16:06:48.632Z,1.50
2022-09-13T16:09:25.474Z,1.30
2022-09-13T16:11:53.280Z,1.40
2022-09-13T16:14:21.049Z,1.30
2022-09-13T16:16:49.262Z,1.90
2022-09-13T16:19:23.385Z,1.20
2022-09-13T16:21:51.048Z,1.05
2022-09-13T16:24:18.301Z,1.38
2022-09-13T16:26:45.840Z,1.50
2022-09-13T16:29:16.555Z,1.50
2022-09-13T16:31:43.992Z,1.58
2022-09-13T16:34:11.430Z,1.10
2022-09-13T16:36:38.748Z,1.30
2022-09-13T16:39:06.122Z,1.15
2022-09-13T16:41:33.427Z,1.05
2022-09-13T16:44:01.963Z,1.50
2022-09-13T16:46:30.849Z,1.58
2022-09-13T16:48:58.588Z,1.30
2022-09-13T16:51:26.549Z,1.45
2022-09-13T16:53:54.495Z,1.30
2022-09-13T16:56:26.645Z,1.20
2022-09-13T16:58:55.031Z,1.55
2022-09-13T17:01:27.529Z,1.40
2022-09-13T17:03:56.959Z,1.45
2022-09-13T17:06:27.024Z,1.67
2022-09-13T17:09:01.496Z,1.60
2022-09-13T17:11:34.055Z,1.67
2022-09-13T17:14:06.524Z,1.20
2022-09-13T17:16:49.455Z,1.50
2022-09-13T17:19:27.744Z,1.27
2022-09-13T17:21:57.556Z,1.45
2022-09-13T17:24:28.161Z,1.38
2022-09-13T17:26:56.964Z,1.38
2022-09-13T17:29:25.698Z,1.70
2022-09-13T17:31:53.184Z,1.48
2022-09-13T17:34:21.288Z,1.13
2022-09-13T17:36:51.205Z,1.63
2022-09-13T17:39:19.711Z,1.50
2022-09-13T17:41:48.688Z,1.58
2022-09-13T17:44:16.363Z,1.50
2022-09-13T17:46:44.432Z,1.75
2022-09-13T17:49:11.949Z,1.83
2022-09-13T17:51:39.500Z,1.90
2022-09-13T17:54:10.353Z,1.95
2022-09-13T17:56:44.300Z,1.52
2022-09-13T17:59:21.568Z,2.40
2022-09-13T18:01:53.936Z,1.92
2022-09-13T18:04:23.950Z,1.77
2022-09-13T18:06:53.641Z,1.98
2022-09-13T18:09:21.868Z,2.13
2022-09-13T18:11:50.096Z,2.05
2022-09-13T18:14:19.636Z,2.15
2022-09-13T18:16:51.864Z,2.03
2022-09-13T18:19:33.843Z,1.92
2022-09-13T18:22:09.448Z,1.90
2022-09-13T18:24:37.007Z,1.83
2022-09-13T18:27:04.719Z,2.00
2022-09-13T18:29:32.938Z,2.15
2022-09-13T18:32:00.482Z,1.73
2022-09-13T18:34:28.137Z,2.10
2022-09-13T18:36:55.739Z,1.52
2022-09-13T18:39:23.669Z,1.90
2022-09-13T18:41:51.208Z,2.20
2022-09-13T18:44:19.245Z,1.80
2022-09-13T18:46:47.453Z,2.08
2022-09-13T18:49:15.270Z,2.38
2022-09-13T18:51:45.168Z,1.95
2022-09-13T18:54:17.633Z,2.10
2022-09-13T18:56:47.298Z,2.08
2022-09-13T18:59:14.894Z,2.45
2022-09-13T19:01:44.731Z,2.30
2022-09-13T19:04:17.996Z,1.80
2022-09-13T19:06:53.409Z,1.70
2022-09-13T19:09:22.986Z,1.60
2022-09-13T19:11:55.225Z,2.80
2022-09-13T19:14:27.613Z,2.40
2022-09-13T19:17:04.243Z,2.63
2022-09-13T19:19:31.932Z,2.70
2022-09-13T19:21:59.209Z,2.90
2022-09-13T19:24:26.797Z,2.78
2022-09-13T19:26:54.316Z,2.63
2022-09-13T19:29:23.614Z,2.88
2022-09-13T19:31:55.715Z,2.75
2022-09-13T19:34:23.895Z,3.17
2022-09-13T19:36:57.321Z,3.33
2022-09-13T19:39:29.173Z,2.47
2022-09-13T19:42:02.338Z,2.28
2022-09-13T19:44:29.960Z,2.25
2022-09-13T19:47:36.392Z,2.25
2022-09-13T19:49:45.379Z,2.17
2022-09-13T19:52:12.625Z,2.17
2022-09-13T19:54:39.915Z,2.85
2022-09-13T19:57:09.866Z,2.05
2022-09-13T19:59:37.197Z,2.30
2022-09-13T20:02:04.956Z,2.20
2022-09-13T20:04:32.792Z,1.90
2022-09-13T20:09:31.619Z,1.98
2022-09-13T20:12:00.466Z,2.17
2022-09-13T20:14:28.528Z,1.90
2022-09-13T20:16:56.236Z,1.73
2022-09-13T20:19:40.670Z,2.33
2022-09-13T20:22:09.748Z,2.15
2022-09-13T20:24:37.413Z,1.92
2022-09-13T20:27:05.116Z,2.30
2022-09-13T20:29:32.511Z,2.25
2022-09-13T20:32:00.427Z,2.38
2022-09-13T20:34:28.023Z,2.45
2022-09-13T20:36:55.399Z,2.15
2022-09-13T20:39:22.671Z,2.20
2022-09-13T20:41:50.078Z,2.55
2022-09-13T20:44:17.900Z,1.83
2022-09-13T20:46:45.466Z,2.30
2022-09-13T20:49:12.855Z,1.95
2022-09-13T20:51:40.242Z,2.28
2022-09-13T20:54:08.300Z,1.90
2022-09-13T20:56:36.146Z,2.08
2022-09-13T20:59:05.031Z,2.53
2022-09-13T21:01:33.469Z,2.55
2022-09-13T21:04:01.243Z,2.97
2022-09-13T21:06:59.492Z,3.15
2022-09-13T21:09:27.281Z,2.05
2022-09-13T21:11:54.694Z,2.55
2022-09-13T21:14:21.979Z,1.88
2022-09-13T21:16:49.253Z,2.10
2022-09-13T21:19:16.560Z,2.40
2022-09-13T21:21:43.887Z,2.72
2022-09-13T21:24:12.967Z,2.53
2022-09-13T21:26:42.391Z,2.40
2022-09-13T21:29:11.643Z,2.58
2022-09-13T21:31:40.233Z,2.85
2022-09-13T21:34:16.244Z,2.10
2022-09-13T21:36:46.109Z,2.80
2022-09-13T21:39:15.136Z,2.45
2022-09-13T21:41:43.517Z,2.65
2022-09-13T21:44:11.240Z,2.47
2022-09-13T21:46:40.490Z,2.10
2022-09-13T21:49:13.341Z,2.50
2022-09-13T21:51:48.324Z,2.47
2022-09-13T21:54:19.410Z,2.33
2022-09-13T21:56:54.245Z,2.50
2022-09-13T21:59:23.532Z,2.30
2022-09-13T22:01:53.097Z,2.35
2022-09-13T22:04:27.414Z,2.47
2022-09-13T22:06:55.645Z,2.00
2022-09-13T22:09:26.933Z,2.53
2022-09-13T22:11:56.588Z,2.30
2022-09-13T22:14:24.071Z,2.13
2022-09-13T22:16:53.081Z,2.60
2022-09-13T22:19:27.105Z,2.10
2022-09-13T22:21:59.611Z,2.10
2022-09-13T22:24:32.402Z,2.33
2022-09-13T22:26:59.756Z,2.03
2022-09-13T22:29:27.610Z,2.67
2022-09-13T22:31:55.177Z,2.70
2022-09-13T22:34:25.686Z,2.90
2022-09-13T22:36:55.980Z,2.58
2022-09-13T22:41:51.299Z,2.50
2022-09-13T22:44:18.715Z,2.47
2022-09-13T22:46:47.286Z,2.42
2022-09-13T22:49:19.103Z,2.70
2022-09-13T22:51:48.579Z,2.72
2022-09-13T22:54:18.614Z,2.97
2022-09-13T22:56:46.938Z,2.90
2022-09-13T22:59:21.377Z,2.83
2022-09-13T23:01:49.421Z,2.78
2022-09-13T23:04:17.914Z,2.90
2022-09-13T23:06:46.209Z,3.25
2022-09-13T23:09:18.491Z,2.63
2022-09-13T23:11:46.879Z,3.50
2022-09-13T23:14:21.238Z,3.30
2022-09-13T23:16:52.498Z,2.70
2022-09-13T23:19:22.848Z,2.80
2022-09-13T23:24:19.948Z,2.88
2022-09-13T23:26:48.024Z,2.80
2022-09-13T23:29:19.896Z,2.60
2022-09-13T23:31:48.770Z,3.00
2022-09-13T23:34:17.730Z,2.40
2022-09-13T23:36:47.269Z,2.92
2022-09-13T23:39:19.583Z,2.87
2022-09-13T23:41:50.363Z,2.60
2022-09-13T23:44:18.012Z,2.78
2022-09-13T23:46:45.834Z,2.90
2022-09-13T23:49:13.911Z,2.78
2022-09-13T23:51:41.443Z,2.70
2022-09-13T23:54:09.196Z,2.53
2022-09-13T23:56:36.529Z,2.55
2022-09-13T23:59:06.229Z,2.30
